createdAt,value
2018-04-19T00:00:31.523Z,8.03
2018-04-19T00:01:31.539Z,8.06
2018-04-19T00:02:31.539Z,8.06
2018-04-19T00:03:31.544Z,7.9
2018-04-19T00:04:31.524Z,8.03
2018-04-19T00:05:31.540Z,7.95
2018-04-19T00:06:31.520Z,8.01
2018-04-19T00:07:31.540Z,8
2018-04-19T00:08:31.534Z,8.02
2018-04-19T00:09:31.526Z,7.91
2018-04-19T00:10:31.685Z,7.87
2018-04-19T00:11:31.522Z,7.83
2018-04-19T00:12:31.520Z,7.9
2018-04-19T00:13:31.519Z,7.95
2018-04-19T00:14:31.529Z,7.94
2018-04-19T00:15:31.556Z,7.88
2018-04-19T00:16:31.521Z,7.93
2018-04-19T00:17:31.528Z,7.93
2018-04-19T00:18:31.560Z,7.96
2018-04-19T00:19:31.511Z,7.79
2018-04-19T00:20:31.537Z,7.94
2018-04-19T00:21:31.571Z,7.94
2018-04-19T00:22:31.642Z,7.94
2018-04-19T00:23:31.549Z,8.03
2018-04-19T00:24:31.525Z,8
2018-04-19T00:25:31.522Z,8.02
2018-04-19T00:26:31.525Z,8.03
2018-04-19T00:27:31.519Z,8.07
2018-04-19T00:28:31.526Z,8.04
2018-04-19T00:29:31.544Z,8.03
2018-04-19T00:30:31.511Z,7.99
2018-04-19T00:31:31.533Z,7.98
2018-04-19T00:32:31.533Z,8
2018-04-19T00:33:31.540Z,7.95
2018-04-19T00:34:31.814Z,7.92
2018-04-19T00:35:31.527Z,7.96
2018-04-19T00:36:31.526Z,7.89
2018-04-19T00:37:31.523Z,7.94
2018-04-19T00:38:31.584Z,7.89
2018-04-19T00:39:31.515Z,7.83
2018-04-19T00:40:31.605Z,7.81
2018-04-19T00:41:31.513Z,7.78
2018-04-19T00:42:31.512Z,7.82
2018-04-19T00:43:31.524Z,7.81
2018-04-19T00:44:31.509Z,7.93
2018-04-19T00:45:31.531Z,7.68
2018-04-19T00:46:31.597Z,7.89
2018-04-19T00:47:31.508Z,7.73
2018-04-19T00:48:31.536Z,7.81
2018-04-19T00:49:31.547Z,7.75
2018-04-19T00:50:31.511Z,7.88
2018-04-19T00:51:31.522Z,7.89
2018-04-19T00:52:31.505Z,7.91
2018-04-19T00:53:31.513Z,7.93
2018-04-19T00:54:31.507Z,7.84
2018-04-19T00:55:31.500Z,7.95
2018-04-19T00:56:31.529Z,7.87
2018-04-19T00:57:31.501Z,7.95
2018-04-19T00:58:31.552Z,7.98
2018-04-19T00:59:31.515Z,8.08
2018-04-19T01:00:31.524Z,7.87
2018-04-19T01:01:31.546Z,7.86
2018-04-19T01:02:31.549Z,7.77
2018-04-19T01:03:31.505Z,7.9
2018-04-19T01:04:31.525Z,7.84
2018-04-19T01:05:31.497Z,7.9
2018-04-19T01:06:31.515Z,7.82
2018-04-19T01:07:31.510Z,7.9
2018-04-19T01:08:31.518Z,7.83
2018-04-19T01:09:31.516Z,7.94
2018-04-19T01:10:31.495Z,7.78
2018-04-19T01:11:31.550Z,8.01
2018-04-19T01:12:31.502Z,7.77
2018-04-19T01:13:31.515Z,7.73
2018-04-19T01:14:31.532Z,7.66
2018-04-19T01:15:31.500Z,7.87
2018-04-19T01:16:31.512Z,7.84
2018-04-19T01:17:31.496Z,7.86
2018-04-19T01:18:31.494Z,7.84
2018-04-19T01:19:31.504Z,7.84
2018-04-19T01:20:31.490Z,7.88
2018-04-19T01:21:31.542Z,7.86
2018-04-19T01:22:31.487Z,7.85
2018-04-19T01:23:31.501Z,7.82
2018-04-19T01:24:31.507Z,7.82
2018-04-19T01:25:31.480Z,7.79
2018-04-19T01:26:31.502Z,7.66
2018-04-19T01:27:31.477Z,7.74
2018-04-19T01:28:31.807Z,7.63
2018-04-19T01:29:31.518Z,7.7
2018-04-19T01:30:31.495Z,7.73
2018-04-19T01:31:31.572Z,7.74
2018-04-19T01:32:31.573Z,7.74
2018-04-19T01:33:31.492Z,7.73
2018-04-19T01:34:31.482Z,7.72
2018-04-19T01:35:31.496Z,7.64
2018-04-19T01:36:31.676Z,7.77
2018-04-19T01:37:31.495Z,7.64
2018-04-19T01:38:31.795Z,7.76
2018-04-19T01:39:31.500Z,7.81
2018-04-19T01:40:31.474Z,7.79
2018-04-19T01:41:31.487Z,7.65
2018-04-19T01:42:31.533Z,7.6
2018-04-19T01:43:31.525Z,7.83
2018-04-19T01:44:31.545Z,7.8
2018-04-19T01:45:31.565Z,7.83
2018-04-19T01:46:31.506Z,7.72
2018-04-19T01:47:31.492Z,7.72
2018-04-19T01:48:31.484Z,7.74
2018-04-19T01:49:31.526Z,7.71
2018-04-19T01:50:31.517Z,7.63
2018-04-19T01:51:31.509Z,7.53
2018-04-19T01:52:31.482Z,7.71
2018-04-19T01:53:31.494Z,7.61
2018-04-19T01:54:31.522Z,7.57
2018-04-19T01:55:31.626Z,7.75
2018-04-19T01:56:31.503Z,7.67
2018-04-19T01:57:31.517Z,7.74
2018-04-19T01:58:31.521Z,7.71
2018-04-19T01:59:31.499Z,7.65
2018-04-19T02:00:31.503Z,7.45
2018-04-19T02:01:31.499Z,7.64
2018-04-19T02:02:31.461Z,7.65
2018-04-19T02:03:31.467Z,7.69
2018-04-19T02:04:31.527Z,7.59
2018-04-19T02:05:31.592Z,7.62
2018-04-19T02:06:31.501Z,7.67
2018-04-19T02:07:31.474Z,7.57
2018-04-19T02:08:31.483Z,7.66
2018-04-19T02:09:31.472Z,7.63
2018-04-19T02:10:31.521Z,7.67
2018-04-19T02:11:31.492Z,7.65
2018-04-19T02:12:31.481Z,7.58
2018-04-19T02:13:31.479Z,7.63
2018-04-19T02:14:31.479Z,7.76
2018-04-19T02:15:31.460Z,7.61
2018-04-19T02:16:31.494Z,7.74
2018-04-19T02:17:31.463Z,7.75
2018-04-19T02:18:31.513Z,7.65
2018-04-19T02:19:31.474Z,7.6
2018-04-19T02:20:31.466Z,7.77
2018-04-19T02:21:31.486Z,7.63
2018-04-19T02:22:31.643Z,7.62
2018-04-19T02:23:31.460Z,7.75
2018-04-19T02:24:31.473Z,7.69
2018-04-19T02:25:31.481Z,7.62
2018-04-19T02:26:31.492Z,7.6
2018-04-19T02:27:31.513Z,7.66
2018-04-19T02:28:31.500Z,7.66
2018-04-19T02:29:31.488Z,7.45
2018-04-19T02:30:31.480Z,7.54
2018-04-19T02:31:31.514Z,7.62
2018-04-19T02:32:31.460Z,7.61
2018-04-19T02:33:31.500Z,7.38
2018-04-19T02:34:31.471Z,7.52
2018-04-19T02:35:31.543Z,7.45
2018-04-19T02:36:31.473Z,7.51
2018-04-19T02:37:31.476Z,7.51
2018-04-19T02:38:31.598Z,7.44
2018-04-19T02:39:31.458Z,7.41
2018-04-19T02:40:31.473Z,7.33
2018-04-19T02:41:31.557Z,7.57
2018-04-19T02:42:31.460Z,7.45
2018-04-19T02:43:31.522Z,7.38
2018-04-19T02:44:31.463Z,7.28
2018-04-19T02:45:31.468Z,7.47
2018-04-19T02:46:31.718Z,7.39
2018-04-19T02:47:31.472Z,7.36
2018-04-19T02:48:31.480Z,7.31
2018-04-19T02:49:31.456Z,7.43
2018-04-19T02:50:31.795Z,7.45
2018-04-19T02:51:31.472Z,7.52
2018-04-19T02:52:31.663Z,7.48
2018-04-19T02:53:31.486Z,7.39
2018-04-19T02:54:31.492Z,7.44
2018-04-19T02:55:31.612Z,7.57
2018-04-19T02:56:31.473Z,7.57
2018-04-19T02:57:31.448Z,7.48
2018-04-19T02:58:31.484Z,7.57
2018-04-19T02:59:31.450Z,7.62
2018-04-19T03:00:31.447Z,7.42
2018-04-19T03:01:31.455Z,7.7
2018-04-19T03:02:31.453Z,7.55
2018-04-19T03:03:31.593Z,7.57
2018-04-19T03:04:31.484Z,7.41
2018-04-19T03:05:31.483Z,7.57
2018-04-19T03:06:31.482Z,7.5
2018-04-19T03:07:31.479Z,7.58
2018-04-19T03:08:31.626Z,7.54
2018-04-19T03:09:31.464Z,7.52
2018-04-19T03:10:31.465Z,7.52
2018-04-19T03:11:31.507Z,7.4
2018-04-19T03:12:31.764Z,7.62
2018-04-19T03:13:31.457Z,7.36
2018-04-19T03:14:31.497Z,7.57
2018-04-19T03:15:31.474Z,7.6
2018-04-19T03:16:31.446Z,7.51
2018-04-19T03:17:31.623Z,7.39
2018-04-19T03:18:31.485Z,7.73
2018-04-19T03:19:31.467Z,7.6
2018-04-19T03:20:31.517Z,7.5
2018-04-19T03:21:31.438Z,7.55
2018-04-19T03:22:31.450Z,7.6
2018-04-19T03:23:31.456Z,7.59
2018-04-19T03:24:31.431Z,7.52
2018-04-19T03:25:31.438Z,7.53
2018-04-19T03:26:31.427Z,7.56
2018-04-19T03:27:31.424Z,7.59
2018-04-19T03:28:31.453Z,7.37
2018-04-19T03:29:31.450Z,7.61
2018-04-19T03:30:31.443Z,7.46
2018-04-19T03:31:31.454Z,7.46
2018-04-19T03:32:31.489Z,7.27
2018-04-19T03:33:31.434Z,7.73
2018-04-19T03:34:31.440Z,7.54
2018-04-19T03:35:31.723Z,7.53
2018-04-19T03:36:31.440Z,7.59
2018-04-19T03:37:31.431Z,7.56
2018-04-19T03:38:31.456Z,7.63
2018-04-19T03:39:31.429Z,7.43
2018-04-19T03:40:31.435Z,7.28
2018-04-19T03:41:31.427Z,7.71
2018-04-19T03:42:31.446Z,7.63
2018-04-19T03:43:31.454Z,7.52
2018-04-19T03:44:31.570Z,7.43
2018-04-19T03:45:31.421Z,7.6
2018-04-19T03:46:31.441Z,7.48
2018-04-19T03:47:31.422Z,7.53
2018-04-19T03:48:31.656Z,7.37
2018-04-19T03:49:31.462Z,7.41
2018-04-19T03:50:31.429Z,7.53
2018-04-19T03:51:31.431Z,7.43
2018-04-19T03:52:31.445Z,7.37
2018-04-19T03:53:31.425Z,7.39
2018-04-19T03:54:31.451Z,7.57
2018-04-19T03:55:31.420Z,7.52
2018-04-19T03:56:31.428Z,7.38
2018-04-19T03:57:31.626Z,7.46
2018-04-19T03:58:31.433Z,7.26
2018-04-19T03:59:31.481Z,7.54
2018-04-19T04:00:31.438Z,7.56
2018-04-19T04:01:31.538Z,7.65
2018-04-19T04:02:31.452Z,7.57
2018-04-19T04:03:31.434Z,7.6
2018-04-19T04:04:31.451Z,7.58
2018-04-19T04:05:31.427Z,7.38
2018-04-19T04:06:31.425Z,7.2
2018-04-19T04:07:31.403Z,7.33
2018-04-19T04:08:31.553Z,7.4
2018-04-19T04:09:31.466Z,7.27
2018-04-19T04:10:31.419Z,7.53
2018-04-19T04:11:31.429Z,7.31
2018-04-19T04:12:31.423Z,7.39
2018-04-19T04:13:31.543Z,7.29
2018-04-19T04:14:31.441Z,7.53
2018-04-19T04:15:31.421Z,7.35
2018-04-19T04:16:31.840Z,7.45
2018-04-19T04:17:31.435Z,7.3
2018-04-19T04:18:31.460Z,7.4
2018-04-19T04:19:31.556Z,7.53
2018-04-19T04:20:31.410Z,7.51
2018-04-19T04:21:31.410Z,7.45
2018-04-19T04:22:31.426Z,7.52
2018-04-19T04:23:31.426Z,7.48
2018-04-19T04:24:31.435Z,7.32
2018-04-19T04:25:31.419Z,7.5
2018-04-19T04:26:31.395Z,7.53
2018-04-19T04:27:31.446Z,7.35
2018-04-19T04:28:31.423Z,7.67
2018-04-19T04:29:31.406Z,7.48
2018-04-19T04:30:31.409Z,7.41
2018-04-19T04:31:31.390Z,7.57
2018-04-19T04:32:31.407Z,7.36
2018-04-19T04:33:31.406Z,7.24
2018-04-19T04:34:31.421Z,7.46
2018-04-19T04:35:31.403Z,7.31
2018-04-19T04:36:31.438Z,7.5
2018-04-19T04:37:31.402Z,7.46
2018-04-19T04:38:31.449Z,7.48
2018-04-19T04:39:31.422Z,7.37
2018-04-19T04:40:31.406Z,7.38
2018-04-19T04:41:31.458Z,7.48
2018-04-19T04:42:31.471Z,7.34
2018-04-19T04:43:31.414Z,7.43
2018-04-19T04:44:31.433Z,7.5
2018-04-19T04:45:31.441Z,7.34
2018-04-19T04:46:31.427Z,7.26
2018-04-19T04:47:31.412Z,7.2
2018-04-19T04:48:31.401Z,7.43
2018-04-19T04:49:31.422Z,7.35
2018-04-19T04:50:31.439Z,7.27
2018-04-19T04:51:31.380Z,7.22
2018-04-19T04:52:31.417Z,7.21
2018-04-19T04:53:31.435Z,7.21
2018-04-19T04:54:31.383Z,7.35
2018-04-19T04:55:31.571Z,7.3
2018-04-19T04:56:31.394Z,7.47
2018-04-19T04:57:31.465Z,7.29
2018-04-19T04:58:31.405Z,7.45
2018-04-19T04:59:31.423Z,7.45
2018-04-19T05:00:31.386Z,7.46
2018-04-19T05:01:31.428Z,7.57
2018-04-19T05:02:31.375Z,7.73
2018-04-19T05:03:31.404Z,7.71
2018-04-19T05:04:31.403Z,7.65
2018-04-19T05:05:31.384Z,7.55
2018-04-19T05:06:31.455Z,7.82
2018-04-19T05:07:31.403Z,7.7
2018-04-19T05:08:31.430Z,7.78
2018-04-19T05:09:31.426Z,7.57
2018-04-19T05:10:31.421Z,7.69
2018-04-19T05:11:31.426Z,7.64
2018-04-19T05:12:31.401Z,7.58
2018-04-19T05:13:31.387Z,7.37
2018-04-19T05:14:31.711Z,7.45
2018-04-19T05:15:31.399Z,7.67
2018-04-19T05:16:31.434Z,7.64
2018-04-19T05:17:31.389Z,7.58
2018-04-19T05:18:31.378Z,7.43
2018-04-19T05:19:31.389Z,7.51
2018-04-19T05:20:31.380Z,7.64
2018-04-19T05:21:31.421Z,8
2018-04-19T05:22:31.388Z,7.97
2018-04-19T05:23:31.389Z,7.68
2018-04-19T05:24:31.401Z,7.82
2018-04-19T05:25:31.366Z,8.18
2018-04-19T05:26:31.520Z,7.87
2018-04-19T05:27:31.368Z,7.79
2018-04-19T05:28:31.368Z,7.78
2018-04-19T05:29:31.378Z,8.17
2018-04-19T05:30:31.383Z,8.08
2018-04-19T05:31:31.388Z,7.77
2018-04-19T05:32:31.394Z,7.94
2018-04-19T05:33:31.366Z,7.87
2018-04-19T05:34:31.372Z,7.92
2018-04-19T05:35:31.374Z,7.84
2018-04-19T05:36:31.387Z,7.91
2018-04-19T05:37:31.365Z,7.85
2018-04-19T05:38:31.384Z,7.76
2018-04-19T05:39:31.356Z,7.85
2018-04-19T05:40:31.362Z,7.67
2018-04-19T05:41:31.524Z,7.89
2018-04-19T05:42:31.379Z,7.79
2018-04-19T05:43:31.378Z,7.72
2018-04-19T05:44:31.360Z,7.95
2018-04-19T05:45:31.364Z,7.75
2018-04-19T05:46:31.391Z,7.43
2018-04-19T05:47:31.359Z,7.44
2018-04-19T05:48:31.360Z,7.68
2018-04-19T05:49:31.374Z,7.82
2018-04-19T05:50:31.370Z,7.89
2018-04-19T05:51:31.351Z,7.42
2018-04-19T05:52:31.352Z,7.35
2018-04-19T05:53:31.355Z,7.47
2018-04-19T05:54:31.847Z,7.63
2018-04-19T05:55:31.342Z,7.77
2018-04-19T05:56:31.383Z,7.79
2018-04-19T05:57:31.393Z,7.85
2018-04-19T05:58:31.382Z,7.85
2018-04-19T05:59:31.380Z,7.97
2018-04-19T06:00:31.393Z,7.98
2018-04-19T06:01:31.369Z,7.95
2018-04-19T06:02:31.373Z,7.77
2018-04-19T06:03:31.470Z,7.78
2018-04-19T06:04:31.356Z,7.82
2018-04-19T06:05:31.403Z,7.98
2018-04-19T06:06:31.416Z,7.97
2018-04-19T06:07:31.432Z,8.09
2018-04-19T06:08:31.372Z,7.93
2018-04-19T06:09:31.354Z,7.89
2018-04-19T06:10:31.354Z,7.72
2018-04-19T06:11:31.359Z,7.75
2018-04-19T06:12:31.379Z,7.74
2018-04-19T06:13:31.369Z,7.93
2018-04-19T06:14:31.424Z,7.78
2018-04-19T06:15:31.396Z,7.76
2018-04-19T06:16:31.355Z,7.61
2018-04-19T06:17:31.334Z,7.45
2018-04-19T06:18:31.467Z,7.86
2018-04-19T06:19:31.359Z,7.66
2018-04-19T06:20:31.363Z,7.63
2018-04-19T06:21:31.342Z,7.71
2018-04-19T06:22:31.495Z,7.5
2018-04-19T06:23:31.367Z,7.56
2018-04-19T06:24:31.362Z,7.41
2018-04-19T06:25:31.365Z,7.43
2018-04-19T06:26:31.375Z,7.42
2018-04-19T06:27:31.431Z,7.49
2018-04-19T06:28:31.350Z,7.46
2018-04-19T06:29:31.360Z,7.45
2018-04-19T06:30:31.365Z,7.66
2018-04-19T06:31:31.343Z,7.43
2018-04-19T06:32:31.345Z,7.43
2018-04-19T06:33:31.382Z,7.34
2018-04-19T06:34:31.352Z,7.47
2018-04-19T06:35:31.371Z,7.55
2018-04-19T06:36:31.360Z,7.72
2018-04-19T06:37:31.336Z,7.55
2018-04-19T06:38:31.371Z,7.55
2018-04-19T06:39:31.347Z,7.63
2018-04-19T06:40:31.360Z,7.66
2018-04-19T06:41:31.556Z,7.58
2018-04-19T06:42:31.370Z,7.54
2018-04-19T06:43:31.349Z,7.58
2018-04-19T06:44:31.367Z,7.59
2018-04-19T06:45:31.339Z,7.71
2018-04-19T06:46:31.343Z,7.65
2018-04-19T06:47:31.358Z,7.62
2018-04-19T06:48:31.344Z,7.69
2018-04-19T06:49:31.350Z,7.86
2018-04-19T06:50:31.350Z,7.84
2018-04-19T06:51:31.338Z,7.65
2018-04-19T06:52:31.348Z,7.65
2018-04-19T06:53:31.570Z,7.62
2018-04-19T06:54:31.362Z,7.71
2018-04-19T06:55:31.344Z,7.77
2018-04-19T06:56:31.374Z,7.66
2018-04-19T06:57:31.338Z,7.47
2018-04-19T06:58:31.342Z,7.76
2018-04-19T06:59:31.330Z,7.81
2018-04-19T07:00:31.336Z,7.81
2018-04-19T07:01:31.332Z,8.02
2018-04-19T07:02:31.356Z,7.84
2018-04-19T07:03:31.330Z,8.05
2018-04-19T07:04:31.389Z,7.69
2018-04-19T07:05:31.428Z,7.98
2018-04-19T07:06:31.542Z,7.97
2018-04-19T07:07:31.359Z,7.84
2018-04-19T07:08:31.338Z,7.73
2018-04-19T07:09:31.320Z,7.83
2018-04-19T07:10:31.361Z,7.8
2018-04-19T07:11:31.333Z,7.89
2018-04-19T07:12:31.328Z,7.92
2018-04-19T07:13:31.322Z,7.95
2018-04-19T07:14:31.545Z,8.1
2018-04-19T07:15:31.314Z,7.95
2018-04-19T07:16:31.501Z,7.92
2018-04-19T07:17:31.362Z,7.88
2018-04-19T07:18:31.342Z,7.93
2018-04-19T07:19:31.330Z,7.98
2018-04-19T07:20:31.359Z,8.06
2018-04-19T07:21:31.337Z,7.99
2018-04-19T07:22:31.313Z,7.91
2018-04-19T07:23:31.346Z,8
2018-04-19T07:24:31.329Z,8.13
2018-04-19T07:25:31.361Z,7.88
2018-04-19T07:26:31.384Z,7.85
2018-04-19T07:27:31.307Z,8.05
2018-04-19T07:28:31.309Z,8.22
2018-04-19T07:29:31.315Z,8.16
2018-04-19T07:30:31.345Z,8.14
2018-04-19T07:31:31.357Z,8.08
2018-04-19T07:32:31.373Z,8.16
2018-04-19T07:33:31.312Z,8.11
2018-04-19T07:34:31.420Z,8.1
2018-04-19T07:35:31.320Z,8.06
2018-04-19T07:36:31.344Z,8.09
2018-04-19T07:37:31.375Z,8.07
2018-04-19T07:38:31.341Z,7.98
2018-04-19T07:39:31.323Z,8.07
2018-04-19T07:40:31.300Z,8.07
2018-04-19T07:41:31.297Z,8.1
2018-04-19T07:42:31.337Z,8.15
2018-04-19T07:43:31.489Z,8.23
2018-04-19T07:44:31.337Z,8.17
2018-04-19T07:45:31.322Z,8.15
2018-04-19T07:46:31.329Z,8.17
2018-04-19T07:47:31.297Z,8.27
2018-04-19T07:48:31.316Z,8.2
2018-04-19T07:49:31.316Z,8.22
2018-04-19T07:50:31.323Z,8.2
2018-04-19T07:51:31.665Z,8.3
2018-04-19T07:52:31.324Z,8.4
2018-04-19T07:53:31.300Z,8.38
2018-04-19T07:54:31.316Z,8.28
2018-04-19T07:55:31.309Z,8.25
2018-04-19T07:56:31.293Z,8.39
2018-04-19T07:57:31.350Z,8.26
2018-04-19T07:58:31.306Z,8.2
2018-04-19T07:59:31.326Z,8.34
2018-04-19T08:00:31.301Z,8.52
2018-04-19T08:01:31.301Z,8.52
2018-04-19T08:02:31.313Z,8.45
2018-04-19T08:03:31.337Z,8.41
2018-04-19T08:04:31.312Z,8.38
2018-04-19T08:05:31.718Z,8.42
2018-04-19T08:06:31.352Z,8.57
2018-04-19T08:07:31.302Z,8.69
2018-04-19T08:08:31.326Z,8.43
2018-04-19T08:09:31.338Z,8.63
2018-04-19T08:10:31.345Z,8.56
2018-04-19T08:11:31.655Z,8.31
2018-04-19T08:12:31.288Z,8.51
2018-04-19T08:13:31.305Z,8.37
2018-04-19T08:14:31.313Z,8.5
2018-04-19T08:15:31.299Z,8.49
2018-04-19T08:16:31.308Z,8.68
2018-04-19T08:17:31.301Z,8.45
2018-04-19T08:18:31.291Z,8.63
2018-04-19T08:19:31.307Z,8.59
2018-04-19T08:20:31.345Z,8.61
2018-04-19T08:21:31.279Z,8.66
2018-04-19T08:22:31.281Z,8.66
2018-04-19T08:23:31.339Z,8.74
2018-04-19T08:24:31.532Z,8.6
2018-04-19T08:25:31.294Z,8.7
2018-04-19T08:26:31.306Z,8.53
2018-04-19T08:27:31.301Z,8.59
2018-04-19T08:28:31.281Z,8.67
2018-04-19T08:29:31.334Z,8.67
2018-04-19T08:30:31.287Z,8.97
2018-04-19T08:31:31.290Z,9.17
2018-04-19T08:32:31.328Z,8.77
2018-04-19T08:33:31.336Z,8.69
2018-04-19T08:34:31.279Z,8.96
2018-04-19T08:35:31.307Z,8.69
2018-04-19T08:36:31.398Z,8.66
2018-04-19T08:37:31.303Z,8.87
2018-04-19T08:38:31.310Z,8.9
2018-04-19T08:39:31.292Z,8.93
2018-04-19T08:40:31.316Z,8.78
2018-04-19T08:41:31.291Z,8.77
2018-04-19T08:42:31.330Z,8.91
2018-04-19T08:43:31.359Z,8.61
2018-04-19T08:44:31.402Z,8.69
2018-04-19T08:45:31.322Z,9.03
2018-04-19T08:46:31.342Z,8.8
2018-04-19T08:47:31.463Z,8.81
2018-04-19T08:48:31.297Z,8.71
2018-04-19T08:49:31.313Z,8.98
2018-04-19T08:50:31.282Z,9.15
2018-04-19T08:51:31.289Z,9.02
2018-04-19T08:52:31.309Z,8.66
2018-04-19T08:53:31.332Z,8.93
2018-04-19T08:54:31.285Z,9.19
2018-04-19T08:55:31.287Z,9.19
2018-04-19T08:56:31.291Z,9.25
2018-04-19T08:57:31.310Z,9.16
2018-04-19T08:58:31.454Z,9.02
2018-04-19T08:59:31.297Z,9.04
2018-04-19T09:00:31.283Z,8.88
2018-04-19T09:01:31.293Z,8.62
2018-04-19T09:02:31.283Z,8.73
2018-04-19T09:03:31.337Z,8.85
2018-04-19T09:04:31.290Z,8.86
2018-04-19T09:05:31.271Z,8.78
2018-04-19T09:06:31.283Z,8.66
2018-04-19T09:07:31.265Z,8.55
2018-04-19T09:08:31.325Z,8.53
2018-04-19T09:09:31.269Z,8.47
2018-04-19T09:10:31.268Z,8.61
2018-04-19T09:11:31.317Z,8.44
2018-04-19T09:12:31.301Z,8.49
2018-04-19T09:13:31.658Z,8.46
2018-04-19T09:14:31.269Z,8.52
2018-04-19T09:15:31.261Z,8.55
2018-04-19T09:16:31.388Z,8.79
2018-04-19T09:17:31.298Z,8.62
2018-04-19T09:18:31.266Z,8.4
2018-04-19T09:19:31.463Z,8.55
2018-04-19T09:20:31.289Z,8.22
2018-04-19T09:21:31.295Z,8.31
2018-04-19T09:22:31.279Z,8.54
2018-04-19T09:23:31.256Z,8.89
2018-04-19T09:24:31.280Z,8.77
2018-04-19T09:25:31.355Z,8.76
2018-04-19T09:26:31.257Z,8.48
2018-04-19T09:27:31.331Z,8.82
2018-04-19T09:28:31.270Z,8.95
2018-04-19T09:29:31.386Z,8.78
2018-04-19T09:30:31.543Z,9.06
2018-04-19T09:31:31.264Z,8.91
2018-04-19T09:32:31.259Z,9.22
2018-04-19T09:33:31.319Z,8.85
2018-04-19T09:34:31.261Z,8.95
2018-04-19T09:35:31.311Z,8.77
2018-04-19T09:36:31.256Z,8.77
2018-04-19T09:37:31.280Z,8.81
2018-04-19T09:38:31.317Z,8.97
2018-04-19T09:39:31.525Z,8.95
2018-04-19T09:40:31.274Z,8.74
2018-04-19T09:41:31.272Z,8.78
2018-04-19T09:42:31.250Z,9.22
2018-04-19T09:43:31.312Z,9.11
2018-04-19T09:44:31.242Z,8.96
2018-04-19T09:45:31.255Z,9.2
2018-04-19T09:46:31.380Z,9.19
2018-04-19T09:47:31.244Z,9.07
2018-04-19T09:48:31.400Z,9.07
2018-04-19T09:49:31.311Z,8.95
2018-04-19T09:50:31.256Z,9.23
2018-04-19T09:51:31.282Z,9.12
2018-04-19T09:52:31.252Z,8.76
2018-04-19T09:53:31.243Z,9.02
2018-04-19T09:54:31.311Z,9.11
2018-04-19T09:55:31.254Z,8.84
2018-04-19T09:56:31.267Z,8.84
2018-04-19T09:57:31.255Z,8.91
2018-04-19T09:58:31.516Z,8.68
2018-04-19T09:59:31.275Z,8.85
2018-04-19T10:00:31.271Z,9.06
2018-04-19T10:01:31.242Z,8.89
2018-04-19T10:02:31.267Z,9
2018-04-19T10:03:31.243Z,8.61
2018-04-19T10:04:31.244Z,8.72
2018-04-19T10:05:31.230Z,9.03
2018-04-19T10:06:31.246Z,9
2018-04-19T10:07:31.293Z,8.9
2018-04-19T10:08:31.284Z,8.57
2018-04-19T10:09:31.237Z,8.68
2018-04-19T10:10:31.454Z,8.92
2018-04-19T10:11:31.237Z,8.65
2018-04-19T10:12:31.253Z,8.78
2018-04-19T10:13:31.252Z,9.03
2018-04-19T10:14:31.245Z,8.77
2018-04-19T10:15:31.239Z,9.02
2018-04-19T10:16:31.239Z,8.72
2018-04-19T10:17:31.334Z,8.74
2018-04-19T10:18:31.259Z,8.85
2018-04-19T10:19:31.229Z,9.21
2018-04-19T10:20:31.261Z,9.29
2018-04-19T10:21:32.116Z,8.71
2018-04-19T10:22:31.266Z,8.67
2018-04-19T10:23:31.343Z,9.11
2018-04-19T10:24:31.255Z,8.97
2018-04-19T10:25:31.243Z,8.84
2018-04-19T10:26:31.226Z,9.18
2018-04-19T10:27:31.538Z,8.97
2018-04-19T10:28:31.272Z,9.08
2018-04-19T10:29:31.232Z,9.27
2018-04-19T10:30:31.228Z,9.23
2018-04-19T10:31:31.989Z,9.19
2018-04-19T10:32:31.252Z,9.03
2018-04-19T10:33:31.240Z,9.24
2018-04-19T10:34:31.270Z,9.25
2018-04-19T10:35:31.245Z,8.73
2018-04-19T10:36:31.229Z,9.22
2018-04-19T10:37:31.250Z,8.84
2018-04-19T10:38:31.271Z,8.91
2018-04-19T10:39:31.264Z,9.28
2018-04-19T10:40:31.274Z,9.43
2018-04-19T10:41:31.236Z,9.5
2018-04-19T10:42:31.379Z,9.62
2018-04-19T10:43:31.266Z,9.28
2018-04-19T10:44:31.229Z,9.53
2018-04-19T10:45:31.279Z,9.28
2018-04-19T10:46:31.232Z,8.82
2018-04-19T10:47:31.439Z,9.31
2018-04-19T10:48:31.229Z,9.33
2018-04-19T10:49:31.231Z,9.27
2018-04-19T10:50:31.248Z,9.48
2018-04-19T10:51:31.263Z,9.54
2018-04-19T10:52:31.330Z,9.66
2018-04-19T10:53:31.225Z,9.4
2018-04-19T10:54:31.377Z,9.87
2018-04-19T10:55:31.256Z,9.74
2018-04-19T10:56:31.227Z,9.68
2018-04-19T10:57:32.015Z,9.65
2018-04-19T10:58:31.230Z,10.1
2018-04-19T10:59:31.231Z,10.03
2018-04-19T11:00:31.296Z,9.64
2018-04-19T11:01:31.219Z,9.64
2018-04-19T11:02:31.424Z,9.83
2018-04-19T11:03:31.244Z,9.46
2018-04-19T11:04:31.230Z,9.38
2018-04-19T11:05:31.225Z,9.22
2018-04-19T11:06:31.230Z,9.57
2018-04-19T11:07:31.343Z,9.17
2018-04-19T11:08:31.374Z,9.27
2018-04-19T11:09:31.218Z,9.39
2018-04-19T11:10:31.262Z,9.6
2018-04-19T11:11:31.208Z,9.18
2018-04-19T11:12:31.253Z,9.48
2018-04-19T11:13:31.293Z,9.65
2018-04-19T11:14:32.047Z,9.78
2018-04-19T11:15:32.391Z,9.93
2018-04-19T11:16:31.225Z,10.01
2018-04-19T11:17:32.151Z,9.7
2018-04-19T11:18:36.008Z,9.74
2018-04-19T11:19:31.401Z,10.01
2018-04-19T11:20:37.697Z,9.56
2018-04-19T11:21:32.561Z,9.7
2018-04-19T11:22:31.805Z,9.53
2018-04-19T11:23:33.547Z,9.5
2018-04-19T11:24:31.607Z,9.82
2018-04-19T11:25:32.140Z,10
2018-04-19T11:26:31.532Z,10.18
2018-04-19T11:27:31.584Z,9.99
2018-04-19T11:28:33.133Z,10.02
2018-04-19T11:29:33.498Z,10.25
2018-04-19T11:30:32.735Z,10.3
2018-04-19T11:31:31.726Z,9.49
2018-04-19T11:32:33.528Z,9.61
2018-04-19T11:33:33.822Z,10.21
2018-04-19T11:34:38.115Z,9.04
2018-04-19T11:35:34.083Z,9.58
2018-04-19T11:36:40.399Z,9.99
2018-04-19T11:37:32.898Z,9.38
2018-04-19T11:38:34.547Z,9.26
2018-04-19T11:39:37.891Z,9.19
2018-04-19T11:40:31.248Z,9.08
2018-04-19T11:41:34.900Z,9.41
2018-04-19T11:42:32.776Z,9.45
2018-04-19T11:43:32.112Z,10.02
2018-04-19T11:44:35.921Z,10.27
2018-04-19T11:45:35.710Z,10
2018-04-19T11:46:36.358Z,9.97
2018-04-19T11:47:33.101Z,10.07
2018-04-19T11:48:35.071Z,9.86
2018-04-19T11:49:32.220Z,9.27
2018-04-19T11:50:32.850Z,9.81
2018-04-19T11:51:32.986Z,9.63
2018-04-19T11:52:32.771Z,9.41
2018-04-19T11:53:32.502Z,9.17
2018-04-19T11:54:33.172Z,9.35
2018-04-19T11:55:34.269Z,9.23
2018-04-19T11:56:33.745Z,9.46
2018-04-19T11:57:32.241Z,9.29
2018-04-19T11:58:32.207Z,9.35
2018-04-19T11:59:31.227Z,9.71
2018-04-19T12:00:34.398Z,9.55
2018-04-19T12:01:34.434Z,9.29
2018-04-19T12:02:31.642Z,9.25
2018-04-19T12:03:34.201Z,9.1
2018-04-19T12:04:33.152Z,9.19
2018-04-19T12:05:31.745Z,9.88
2018-04-19T12:06:32.101Z,9.68
2018-04-19T12:07:31.472Z,9.34
2018-04-19T12:08:31.355Z,9.02
2018-04-19T12:09:31.552Z,9.73
2018-04-19T12:10:36.395Z,9.36
2018-04-19T12:11:34.274Z,9.2
2018-04-19T12:12:32.478Z,9.37
2018-04-19T12:13:31.828Z,9.56
2018-04-19T12:14:31.277Z,9.78
2018-04-19T12:15:34.739Z,8.63
2018-04-19T12:16:34.529Z,8.71
2018-04-19T12:17:31.526Z,8.85
2018-04-19T12:18:31.592Z,9.1
2018-04-19T12:19:32.146Z,8.2
2018-04-19T12:20:40.923Z,9.25
2018-04-19T12:21:37.079Z,9.82
2018-04-19T12:22:34.071Z,9.57
2018-04-19T12:23:33.162Z,8.99
2018-04-19T12:24:31.398Z,9.41
2018-04-19T12:25:31.231Z,9.1
2018-04-19T12:26:31.245Z,9.21
2018-04-19T12:27:31.191Z,9.36
2018-04-19T12:28:31.193Z,8.71
2018-04-19T12:29:31.219Z,8.72
2018-04-19T12:30:31.241Z,8.66
2018-04-19T12:31:31.201Z,8.97
2018-04-19T12:32:31.187Z,8.47
2018-04-19T12:33:31.232Z,9.01
2018-04-19T12:34:31.195Z,8.41
2018-04-19T12:35:31.207Z,8.27
2018-04-19T12:36:31.194Z,8.38
2018-04-19T12:37:31.679Z,7.92
2018-04-19T12:38:31.194Z,7.41
2018-04-19T12:39:31.206Z,8.09
2018-04-19T12:40:32.803Z,8.44
2018-04-19T12:41:31.203Z,8.1
2018-04-19T12:42:31.383Z,8.67
2018-04-19T12:43:31.478Z,8.01
2018-04-19T12:44:31.196Z,8.6
2018-04-19T12:45:31.190Z,8.39
2018-04-19T12:46:31.189Z,7.85
2018-04-19T12:47:31.195Z,7.84
2018-04-19T12:48:31.198Z,7.4
2018-04-19T12:49:31.205Z,8.22
2018-04-19T12:50:31.217Z,8.73
2018-04-19T12:51:31.337Z,8.68
2018-04-19T12:52:31.185Z,8.07
2018-04-19T12:53:31.221Z,7.92
2018-04-19T12:54:31.202Z,8.69
2018-04-19T12:55:31.340Z,8.88
2018-04-19T12:56:31.400Z,8.52
2018-04-19T12:57:31.223Z,8.04
2018-04-19T12:58:31.195Z,8.63
2018-04-19T12:59:31.305Z,8.66
2018-04-19T13:00:31.213Z,8.87
2018-04-19T13:01:31.218Z,8.09
2018-04-19T13:02:31.219Z,7.74
2018-04-19T13:03:31.222Z,7.65
2018-04-19T13:04:31.212Z,7.59
2018-04-19T13:05:31.213Z,7.58
2018-04-19T13:06:31.611Z,7.42
2018-04-19T13:07:31.182Z,8.19
2018-04-19T13:08:31.196Z,7.98
2018-04-19T13:09:31.234Z,8.28
2018-04-19T13:10:31.221Z,7.3
2018-04-19T13:11:31.241Z,7.88
2018-04-19T13:12:31.210Z,8.1
2018-04-19T13:13:31.214Z,8.57
2018-04-19T13:14:31.209Z,8.35
2018-04-19T13:15:31.285Z,8.33
2018-04-19T13:16:31.194Z,8.56
2018-04-19T13:17:31.189Z,7.83
2018-04-19T13:18:31.196Z,7.98
2018-04-19T13:19:31.198Z,8.15
2018-04-19T13:20:31.232Z,8.22
2018-04-19T13:21:31.259Z,8.09